Time;durP1;ratioP1;P1;durP2;ratioP2;P2;SDS_P1;SDS_P2;PMS_P1;PMS_P2;Temp;Humidity;BMP_temperature;BMP_pressure;BME280_temperature;BME280_humidity;BME280_pressure;Samples;Min_cycle;Max_cycle;Signal;HPM_P1;HPM_P2
2022/06/30 00:01:17;;;;;;;13.23;11.40;;;22.50;99.90;;;;;;5041206;28;20859;-82
2022/06/30 00:04:02;;;;;;;13.17;11.47;;;22.40;99.90;;;;;;5041523;28;20375;-82
2022/06/30 00:06:47;;;;;;;13.33;11.20;;;22.40;99.90;;;;;;5042253;28;20406;-82
2022/06/30 00:09:32;;;;;;;12.70;11.40;;;22.30;99.90;;;;;;5041519;28;20410;-82
2022/06/30 00:12:17;;;;;;;15.00;12.00;;;22.30;99.90;;;;;;5042159;28;20515;-82
2022/06/30 00:15:01;;;;;;;12.17;10.97;;;22.30;99.90;;;;;;5042792;28;20439;-82
2022/06/30 00:17:46;;;;;;;12.30;11.07;;;22.30;99.90;;;;;;5049671;28;20403;-79
2022/06/30 00:20:31;;;;;;;13.87;11.80;;;22.20;99.90;;;;;;5051164;28;20391;-79
2022/06/30 00:23:15;;;;;;;13.83;11.07;;;22.10;99.90;;;;;;5051996;28;20434;-79
2022/06/30 00:26:00;;;;;;;10.97;9.83;;;22.10;99.90;;;;;;5051169;28;20387;-80
2022/06/30 00:28:46;;;;;;;13.13;11.83;;;22.10;99.90;;;;;;5051236;28;20418;-79
2022/06/30 00:31:30;;;;;;;13.77;11.17;;;22.10;99.90;;;;;;5051236;28;20395;-80
2022/06/30 00:34:15;;;;;;;16.63;12.73;;;22.10;99.90;;;;;;5050340;28;20966;-80
2022/06/30 00:37:00;;;;;;;14.13;12.77;;;22.00;99.90;;;;;;5048829;28;20470;-80
2022/06/30 00:39:45;;;;;;;14.13;10.87;;;22.00;99.90;;;;;;5048982;28;20438;-80
2022/06/30 00:42:30;;;;;;;13.67;11.93;;;22.00;99.90;;;;;;5062687;28;20379;-80
2022/06/30 00:45:15;;;;;;;14.17;12.60;;;22.00;99.90;;;;;;5046226;28;20391;-82
2022/06/30 00:48:01;;;;;;;12.67;11.00;;;22.00;99.90;;;;;;5042575;28;20883;-82
2022/06/30 00:50:46;;;;;;;18.87;12.00;;;22.00;99.90;;;;;;5043577;28;20403;-82
2022/06/30 00:53:35;;;;;;;13.57;11.20;;;22.00;99.90;;;;;;5040647;28;20803;-83
2022/06/30 00:56:22;;;;;;;14.70;13.10;;;21.90;99.90;;;;;;5040329;28;20458;-82
2022/06/30 00:59:08;;;;;;;14.53;11.23;;;22.00;99.90;;;;;;5040457;28;20457;-82
2022/06/30 01:01:53;;;;;;;16.00;12.70;;;21.90;99.90;;;;;;5040437;28;20395;-83
2022/06/30 01:04:40;;;;;;;17.30;11.20;;;21.90;99.90;;;;;;5040233;28;20379;-82
2022/06/30 01:07:25;;;;;;;17.10;13.13;;;21.80;99.90;;;;;;5040783;28;20410;-82
2022/06/30 01:13:06;;;;;;;12.50;11.20;;;21.90;99.90;;;;;;5040346;28;20391;-83
2022/06/30 01:15:50;;;;;;;18.33;13.73;;;21.90;99.90;;;;;;5040162;28;20478;-82
2022/06/30 01:18:35;;;;;;;11.97;10.70;;;21.90;99.90;;;;;;5040855;28;20395;-82
2022/06/30 01:21:20;;;;;;;13.53;12.00;;;21.90;99.90;;;;;;5040231;28;20433;-82
2022/06/30 01:24:05;;;;;;;21.37;12.03;;;21.90;99.90;;;;;;5040398;28;20390;-82
2022/06/30 01:26:56;;;;;;;14.13;11.83;;;21.90;99.90;;;;;;5039297;28;20414;-82
2022/06/30 01:29:40;;;;;;;13.53;11.03;;;21.80;99.90;;;;;;5039484;28;20398;-82
2022/06/30 01:32:28;;;;;;;12.40;11.10;;;21.80;99.90;;;;;;5039430;28;20402;-84
2022/06/30 01:35:12;;;;;;;12.67;11.47;;;21.70;99.90;;;;;;5039734;28;20486;-83
2022/06/30 01:37:59;;;;;;;14.53;13.10;;;21.70;99.90;;;;;;5039363;28;20383;-83
2022/06/30 01:40:44;;;;;;;13.57;12.03;;;21.60;99.90;;;;;;5039690;28;20934;-84
2022/06/30 01:43:29;;;;;;;15.70;11.67;;;21.60;99.90;;;;;;5038787;28;20387;-83
2022/06/30 01:46:20;;;;;;;17.03;10.70;;;21.60;99.90;;;;;;5039364;28;20399;-84
2022/06/30 01:49:05;;;;;;;13.90;12.20;;;21.60;99.90;;;;;;5040027;28;20394;-83
2022/06/30 01:51:49;;;;;;;16.97;12.03;;;21.40;99.90;;;;;;5039471;28;20418;-83
2022/06/30 01:54:34;;;;;;;26.80;14.00;;;21.50;99.90;;;;;;5039891;28;20471;-83
2022/06/30 01:57:18;;;;;;;15.13;12.30;;;21.50;99.90;;;;;;5039044;28;20998;-83
2022/06/30 02:00:05;;;;;;;15.77;12.30;;;21.50;99.90;;;;;;5038933;28;20470;-83
2022/06/30 02:02:50;;;;;;;16.63;12.83;;;21.60;99.90;;;;;;5039790;28;20379;-83
2022/06/30 02:05:35;;;;;;;10.13;9.13;;;21.60;99.90;;;;;;5039228;28;20375;-83
2022/06/30 02:08:19;;;;;;;12.63;9.97;;;20.80;99.90;;;;;;5039998;28;20728;-83
2022/06/30 02:11:04;;;;;;;15.43;10.30;;;20.50;99.90;;;;;;5040554;28;20845;-83
2022/06/30 02:13:49;;;;;;;11.80;10.23;;;20.20;99.90;;;;;;5040176;28;20398;-82
2022/06/30 02:16:34;;;;;;;11.80;9.63;;;20.10;99.90;;;;;;5039729;28;20446;-83
2022/06/30 02:19:19;;;;;;;12.60;10.60;;;20.20;99.90;;;;;;5042883;28;20383;-81
2022/06/30 02:22:04;;;;;;;11.33;10.27;;;20.20;99.90;;;;;;5043726;28;20383;-84
2022/06/30 02:24:49;;;;;;;13.97;10.40;;;20.10;99.90;;;;;;5044433;28;20406;-82
2022/06/30 02:27:33;;;;;;;13.20;10.70;;;20.10;99.90;;;;;;5050702;28;20399;-81
2022/06/30 02:30:18;;;;;;;14.70;11.40;;;20.20;99.90;;;;;;5032105;28;20394;-84
2022/06/30 02:33:03;;;;;;;12.30;10.73;;;20.10;99.90;;;;;;5045701;28;20387;-82
2022/06/30 02:35:47;;;;;;;21.47;11.33;;;20.10;99.90;;;;;;5044715;28;20470;-82
2022/06/30 02:38:32;;;;;;;14.17;11.77;;;20.10;99.90;;;;;;5037974;28;20386;-83
2022/06/30 02:41:17;;;;;;;16.90;12.30;;;20.10;99.90;;;;;;5037345;28;20386;-85
2022/06/30 02:44:02;;;;;;;13.80;11.33;;;20.10;99.90;;;;;;5039911;28;20438;-83
2022/06/30 02:46:49;;;;;;;15.00;13.50;;;20.20;99.90;;;;;;5045723;28;20402;-82
2022/06/30 02:49:35;;;;;;;17.20;11.83;;;20.10;99.90;;;;;;5043964;28;20382;-83
2022/06/30 02:52:19;;;;;;;13.00;11.80;;;20.30;99.90;;;;;;5028927;28;20399;-84
2022/06/30 02:55:05;;;;;;;13.13;11.77;;;20.20;99.90;;;;;;5040025;28;20498;-83
2022/06/30 02:57:50;;;;;;;18.13;12.80;;;20.10;99.90;;;;;;5039160;28;20470;-84
2022/06/30 03:00:35;;;;;;;16.27;11.90;;;20.20;99.90;;;;;;5038714;28;20578;-84
2022/06/30 03:03:19;;;;;;;14.63;12.13;;;20.10;99.90;;;;;;5038762;28;20522;-83
2022/06/30 03:06:05;;;;;;;12.83;11.53;;;20.10;99.90;;;;;;5041436;28;20416;-83
2022/06/30 03:08:50;;;;;;;16.63;12.60;;;20.20;99.90;;;;;;5041553;28;20410;-83
2022/06/30 03:11:35;;;;;;;13.43;11.57;;;20.30;99.90;;;;;;5041607;28;20786;-83
2022/06/30 03:14:19;;;;;;;14.80;11.77;;;20.20;99.90;;;;;;5041053;28;20399;-84
2022/06/30 03:17:04;;;;;;;12.00;10.47;;;20.10;99.90;;;;;;5041257;28;20802;-83
2022/06/30 03:19:49;;;;;;;14.23;12.73;;;20.10;99.90;;;;;;5026235;28;20437;-83
2022/06/30 03:22:34;;;;;;;17.47;14.90;;;20.20;99.90;;;;;;5041431;28;20390;-83
2022/06/30 03:25:19;;;;;;;17.83;14.20;;;20.40;99.90;;;;;;5041887;28;20410;-83
2022/06/30 03:28:04;;;;;;;21.33;13.87;;;20.60;99.90;;;;;;5041759;28;20395;-83
2022/06/30 03:30:49;;;;;;;20.87;14.70;;;20.70;99.90;;;;;;5042045;28;20390;-83
2022/06/30 03:33:33;;;;;;;16.60;14.90;;;20.80;99.90;;;;;;5042161;28;20414;-83
2022/06/30 03:36:18;;;;;;;19.37;13.70;;;20.80;99.90;;;;;;5041978;28;20485;-83
2022/06/30 03:39:03;;;;;;;16.30;14.17;;;20.90;99.90;;;;;;5042064;28;20383;-83
2022/06/30 03:41:48;;;;;;;19.10;13.80;;;20.90;99.90;;;;;;5042073;28;20779;-83
2022/06/30 03:44:33;;;;;;;16.33;14.70;;;21.00;99.90;;;;;;5041856;28;20475;-81
2022/06/30 03:47:17;;;;;;;10.23;9.00;;;21.00;99.90;;;;;;5055663;28;20456;-82
2022/06/30 03:50:02;;;;;;;10.60;9.50;;;20.70;99.90;;;;;;5055117;28;20432;-83
2022/06/30 03:52:47;;;;;;;10.73;9.60;;;20.10;99.90;;;;;;5052813;28;20755;-83
2022/06/30 03:55:33;;;;;;;15.23;8.70;;;19.70;99.90;;;;;;5040869;28;20466;-83
2022/06/30 03:58:17;;;;;;;11.77;10.20;;;19.60;99.90;;;;;;5040595;28;20410;-82
2022/06/30 04:01:03;;;;;;;10.53;9.50;;;19.40;99.90;;;;;;5040738;28;20538;-82
2022/06/30 04:03:47;;;;;;;11.33;9.53;;;19.40;99.90;;;;;;5040404;28;20395;-84
2022/06/30 04:06:31;;;;;;;11.83;10.20;;;19.40;99.90;;;;;;5040293;28;20472;-82
2022/06/30 04:09:16;;;;;;;15.83;10.53;;;19.30;99.90;;;;;;5040985;28;20465;-83
2022/06/30 04:12:01;;;;;;;13.30;9.30;;;19.30;99.90;;;;;;5041049;28;20406;-82
2022/06/30 04:14:45;;;;;;;12.03;10.07;;;19.30;99.90;;;;;;5041609;28;20459;-83
2022/06/30 04:17:33;;;;;;;13.83;10.27;;;19.30;99.90;;;;;;5046163;28;20433;-82
2022/06/30 04:20:17;;;;;;;12.93;11.37;;;19.40;99.90;;;;;;5054387;28;20410;-82
2022/06/30 04:23:02;;;;;;;12.60;10.13;;;19.30;99.90;;;;;;5047953;28;20694;-83
2022/06/30 04:25:47;;;;;;;12.40;8.93;;;19.40;99.90;;;;;;5041557;28;20387;-83
2022/06/30 04:28:31;;;;;;;10.97;9.20;;;19.10;99.90;;;;;;5040178;28;20410;-83
2022/06/30 04:34:14;;;;;;;18.17;14.03;;;19.50;99.90;;;;;;5040592;28;20383;-83
2022/06/30 04:37:02;;;;;;;19.47;15.37;;;19.60;99.90;;;;;;5042161;28;20842;-81
2022/06/30 04:39:47;;;;;;;16.93;12.73;;;19.60;99.90;;;;;;5027093;28;20753;-83
2022/06/30 04:42:32;;;;;;;22.00;15.23;;;19.80;99.90;;;;;;5040613;28;20442;-83
2022/06/30 04:45:16;;;;;;;15.77;13.17;;;19.70;99.90;;;;;;5040044;28;20456;-83
2022/06/30 04:48:02;;;;;;;19.00;13.27;;;19.90;99.90;;;;;;5025036;28;20426;-83
2022/06/30 04:50:47;;;;;;;17.30;13.30;;;20.10;99.90;;;;;;5040401;28;20387;-83
2022/06/30 04:53:31;;;;;;;17.20;14.73;;;20.10;99.90;;;;;;5039533;28;20403;-83
2022/06/30 04:56:17;;;;;;;22.27;15.30;;;20.30;99.90;;;;;;5024119;28;21026;-83
2022/06/30 04:59:01;;;;;;;22.30;17.63;;;20.50;99.90;;;;;;5039137;28;20959;-83
2022/06/30 05:01:47;;;;;;;18.20;16.03;;;20.70;99.90;;;;;;5059136;28;20804;-83
2022/06/30 05:04:32;;;;;;;19.43;14.90;;;20.80;99.90;;;;;;5059330;28;20382;-83
2022/06/30 05:07:17;;;;;;;22.63;15.63;;;20.90;99.90;;;;;;5059624;28;20382;-83
2022/06/30 05:10:02;;;;;;;18.37;13.50;;;20.70;99.90;;;;;;5059124;28;20567;-83
2022/06/30 05:12:47;;;;;;;19.67;16.50;;;20.60;99.90;;;;;;5058764;28;20893;-83
2022/06/30 05:15:31;;;;;;;19.73;14.47;;;20.70;99.90;;;;;;5059652;28;20512;-83
2022/06/30 05:18:16;;;;;;;16.20;13.57;;;20.80;99.90;;;;;;5059318;28;20461;-83
2022/06/30 05:21:01;;;;;;;18.03;15.63;;;20.80;99.90;;;;;;5059300;28;20394;-83
2022/06/30 05:26:28;;;;;;;19.93;15.13;;;20.80;99.90;;;;;;5059277;28;20894;-83
2022/06/30 05:26:49;;;;;;;14.60;13.10;;;20.80;99.90;;;;;;5055422;28;20448;-82
2022/06/30 05:29:34;;;;;;;25.00;11.73;;;21.00;99.90;;;;;;5043637;28;20382;-82
2022/06/30 05:32:19;;;;;;;14.47;12.93;;;21.10;99.90;;;;;;5058961;28;20444;-82
2022/06/30 05:35:05;;;;;;;18.83;13.93;;;21.20;99.90;;;;;;5059918;28;20389;-83
2022/06/30 05:37:50;;;;;;;15.67;13.40;;;21.50;99.90;;;;;;5061037;28;20401;-82
2022/06/30 05:40:34;;;;;;;17.57;13.50;;;21.30;99.90;;;;;;5061760;28;20394;-84
2022/06/30 05:43:19;;;;;;;22.47;14.13;;;21.50;99.90;;;;;;5061534;28;20520;-83
2022/06/30 05:46:04;;;;;;;15.27;13.67;;;21.50;99.90;;;;;;5053604;28;20416;-83
2022/06/30 05:48:48;;;;;;;18.10;13.67;;;21.50;99.90;;;;;;5047012;28;20402;-83
2022/06/30 05:51:33;;;;;;;14.93;12.00;;;21.70;99.90;;;;;;5046529;28;20425;-83
2022/06/30 05:54:18;;;;;;;13.63;12.20;;;21.50;99.90;;;;;;5066757;28;20579;-82
2022/06/30 05:57:03;;;;;;;14.67;11.40;;;21.70;99.90;;;;;;5039399;28;20507;-82
2022/06/30 05:59:48;;;;;;;12.03;10.50;;;21.60;99.90;;;;;;5041386;28;20527;-83
2022/06/30 06:02:33;;;;;;;16.43;12.60;;;21.70;99.90;;;;;;5028529;28;20744;-84
2022/06/30 06:05:17;;;;;;;13.90;12.27;;;21.70;99.90;;;;;;5031673;28;20950;-83
2022/06/30 06:08:07;;;;;;;16.17;12.77;;;21.80;99.90;;;;;;5022147;28;20965;-83
2022/06/30 06:10:52;;;;;;;15.07;12.53;;;21.90;99.90;;;;;;5037392;28;20406;-83
2022/06/30 06:13:36;;;;;;;12.70;11.40;;;22.00;99.90;;;;;;5030997;28;20580;-83
2022/06/30 06:16:21;;;;;;;13.23;11.97;;;21.90;99.90;;;;;;5034376;28;20543;-83
2022/06/30 06:19:06;;;;;;;15.87;12.00;;;21.90;99.90;;;;;;5037878;28;20430;-84
2022/06/30 06:21:51;;;;;;;11.30;10.20;;;22.00;99.90;;;;;;5022001;28;20466;-85
2022/06/30 06:24:35;;;;;;;12.50;10.60;;;22.00;99.90;;;;;;5022716;28;20440;-83
2022/06/30 06:27:20;;;;;;;12.10;10.77;;;22.30;99.90;;;;;;5019976;28;20563;-83
2022/06/30 06:30:07;;;;;;;12.93;11.27;;;22.10;99.90;;;;;;5031384;28;20445;-84
2022/06/30 06:32:51;;;;;;;14.70;10.10;;;22.30;99.90;;;;;;5015527;28;21052;-83
2022/06/30 06:35:36;;;;;;;15.43;10.90;;;22.30;99.90;;;;;;5029715;28;20962;-81
2022/06/30 06:38:20;;;;;;;11.97;10.23;;;22.30;99.90;;;;;;5007831;28;20483;-84
2022/06/30 06:41:07;;;;;;;10.37;9.53;;;22.30;99.90;;;;;;5032104;28;20437;-81
2022/06/30 06:43:53;;;;;;;12.80;11.07;;;22.30;99.90;;;;;;5029420;28;20429;-83
2022/06/30 06:46:37;;;;;;;12.87;11.03;;;22.30;99.90;;;;;;5003616;28;20418;-82
2022/06/30 06:49:22;;;;;;;12.80;10.53;;;22.50;99.90;;;;;;5036645;28;20434;-82
2022/06/30 06:52:08;;;;;;;10.10;9.07;;;22.60;99.90;;;;;;5002568;28;20455;-82
2022/06/30 06:54:53;;;;;;;12.90;10.50;;;23.00;99.90;;;;;;5029505;28;20414;-83
2022/06/30 06:57:39;;;;;;;10.53;9.50;;;23.00;99.90;;;;;;5026926;28;20446;-82
2022/06/30 07:00:24;;;;;;;11.83;10.77;;;22.90;99.90;;;;;;5026309;28;20481;-83
2022/06/30 07:03:08;;;;;;;11.57;10.47;;;23.10;99.90;;;;;;5013226;28;20455;-81
2022/06/30 07:05:53;;;;;;;12.40;11.17;;;23.00;99.90;;;;;;5000118;28;20516;-79
2022/06/30 07:08:38;;;;;;;11.70;10.50;;;23.10;99.90;;;;;;5002681;28;20480;-81
2022/06/30 07:11:22;;;;;;;11.37;10.03;;;23.20;99.90;;;;;;5032942;28;20435;-82
2022/06/30 07:14:08;;;;;;;12.57;10.80;;;23.00;99.90;;;;;;5027677;28;20827;-82
2022/06/30 07:16:52;;;;;;;11.07;9.80;;;23.10;99.90;;;;;;5034276;28;20461;-82
2022/06/30 07:19:37;;;;;;;12.00;10.73;;;23.30;99.90;;;;;;5036974;28;20427;-83
2022/06/30 07:22:23;;;;;;;15.37;11.70;;;23.50;99.90;;;;;;5032523;28;20431;-83
2022/06/30 07:25:08;;;;;;;15.30;11.77;;;23.40;99.90;;;;;;5037786;28;20445;-83
2022/06/30 07:27:53;;;;;;;11.97;10.77;;;23.30;99.90;;;;;;5028939;28;20772;-83
2022/06/30 07:30:38;;;;;;;12.13;10.80;;;23.50;99.90;;;;;;5030362;28;20435;-84
2022/06/30 07:33:23;;;;;;;12.20;11.00;;;23.70;99.90;;;;;;5026359;28;20589;-83
2022/06/30 07:36:08;;;;;;;12.97;11.23;;;23.70;99.90;;;;;;5016963;28;20832;-86
2022/06/30 07:38:52;;;;;;;13.03;11.73;;;23.80;99.90;;;;;;5009536;28;20426;-86
2022/06/30 07:41:37;;;;;;;13.07;10.57;;;24.00;99.90;;;;;;5031351;28;20430;-86
2022/06/30 07:44:22;;;;;;;12.30;11.10;;;23.90;99.90;;;;;;5017136;28;20453;-86
2022/06/30 07:47:07;;;;;;;17.83;11.83;;;24.10;99.90;;;;;;5022954;28;20442;-86
2022/06/30 07:49:54;;;;;;;12.63;10.40;;;24.10;99.90;;;;;;5018288;28;20897;-86
2022/06/30 07:52:39;;;;;;;15.80;10.87;;;24.00;99.90;;;;;;5010343;28;20491;-86
2022/06/30 07:55:24;;;;;;;10.57;9.57;;;24.10;99.90;;;;;;5007902;28;21012;-84
2022/06/30 07:58:09;;;;;;;13.03;10.10;;;24.40;99.90;;;;;;4998420;28;20485;-83
2022/06/30 08:00:54;;;;;;;12.37;9.90;;;24.60;99.90;;;;;;5055596;28;20464;-83
2022/06/30 08:03:40;;;;;;;10.53;9.63;;;24.80;99.90;;;;;;5051332;28;20506;-83
2022/06/30 08:06:27;;;;;;;10.97;9.97;;;24.70;99.90;;;;;;5047722;28;20517;-83
2022/06/30 08:09:12;;;;;;;11.93;10.60;;;24.80;99.90;;;;;;5033802;28;20490;-82
2022/06/30 08:11:59;;;;;;;12.83;9.60;;;24.80;99.90;;;;;;5045728;28;21055;-81
2022/06/30 08:14:44;;;;;;;10.67;9.77;;;25.00;99.90;;;;;;5049196;28;20441;-83
2022/06/30 08:17:31;;;;;;;11.33;10.33;;;25.20;99.90;;;;;;5051360;28;20495;-83
2022/06/30 08:20:16;;;;;;;17.30;10.30;;;25.40;99.90;;;;;;5047198;28;20429;-82
2022/06/30 08:23:02;;;;;;;11.50;9.13;;;25.50;99.90;;;;;;5038396;28;20775;-81
2022/06/30 08:25:47;;;;;;;13.10;9.00;;;25.00;99.90;;;;;;5034841;28;20561;-82
2022/06/30 08:28:33;;;;;;;10.10;9.10;;;25.20;99.90;;;;;;5024023;28;20523;-82
2022/06/30 08:31:18;;;;;;;10.30;9.43;;;25.10;99.90;;;;;;5020571;28;20442;-82
2022/06/30 08:34:04;;;;;;;9.27;8.37;;;25.30;99.90;;;;;;5012020;28;20449;-82
2022/06/30 08:36:49;;;;;;;9.07;7.53;;;25.20;99.90;;;;;;5008469;28;21013;-82
2022/06/30 08:42:41;;;;;;;10.07;9.17;;;25.40;99.90;;;;;;5046017;28;20449;-82
2022/06/30 08:45:29;;;;;;;11.77;9.20;;;25.60;99.90;;;;;;5031839;28;20426;-82
2022/06/30 08:48:14;;;;;;;9.60;8.27;;;25.70;99.90;;;;;;5006900;28;20474;-80
2022/06/30 08:51:04;;;;;;;10.13;8.93;;;25.80;99.90;;;;;;5010124;28;20485;-79
2022/06/30 08:53:53;;;;;;;11.60;9.13;;;25.80;99.90;;;;;;5007300;28;20607;-81
2022/06/30 08:56:40;;;;;;;11.57;8.37;;;25.70;99.90;;;;;;5015002;28;20486;-82
2022/06/30 08:59:25;;;;;;;7.73;7.03;;;25.70;99.90;;;;;;5032072;28;20557;-82
2022/06/30 09:02:09;;;;;;;9.17;8.20;;;25.60;99.90;;;;;;5044362;28;20425;-83
2022/06/30 09:04:56;;;;;;;8.57;7.70;;;25.90;99.90;;;;;;5046629;28;20441;-81
2022/06/30 09:07:41;;;;;;;7.40;6.70;;;26.00;99.90;;;;;;5023793;28;20424;-80
2022/06/30 09:10:27;;;;;;;10.10;9.03;;;25.80;99.90;;;;;;5047157;28;21624;-83
2022/06/30 09:13:13;;;;;;;9.40;8.17;;;26.00;99.90;;;;;;5055587;28;20488;-82
2022/06/30 09:15:59;;;;;;;7.43;6.83;;;26.20;99.90;;;;;;5034419;28;20507;-80
2022/06/30 09:18:43;;;;;;;7.40;6.70;;;26.00;99.90;;;;;;5046141;28;20910;-83
2022/06/30 09:21:28;;;;;;;8.30;7.47;;;25.90;99.90;;;;;;5052994;28;20479;-82
2022/06/30 09:24:22;;;;;;;6.87;6.23;;;26.00;99.90;;;;;;5015971;28;20512;-83
2022/06/30 09:27:16;;;;;;;8.30;7.03;;;26.20;99.90;;;;;;5049876;28;20476;-83
2022/06/30 09:30:07;;;;;;;8.50;7.60;;;26.40;99.90;;;;;;5052477;28;20446;-81
2022/06/30 09:32:56;;;;;;;9.43;7.73;;;26.70;99.90;;;;;;5063881;28;20436;-83
2022/06/30 09:35:41;;;;;;;7.73;7.13;;;26.80;99.90;;;;;;5063315;28;20461;-83
2022/06/30 09:38:25;;;;;;;15.47;7.10;;;26.90;99.90;;;;;;5043210;28;20459;-83
2022/06/30 09:41:26;;;;;;;8.73;6.47;;;26.70;99.90;;;;;;5047422;28;20428;-83
2022/06/30 09:44:27;;;;;;;7.90;7.07;;;26.80;99.90;;;;;;5065211;28;20428;-82
2022/06/30 09:47:12;;;;;;;6.83;6.33;;;26.70;99.90;;;;;;5061592;28;20416;-81
2022/06/30 09:50:03;;;;;;;8.67;7.40;;;27.00;99.90;;;;;;5049303;28;20453;-82
2022/06/30 09:53:05;;;;;;;7.43;6.17;;;27.20;99.90;;;;;;5035010;28;20445;-81
2022/06/30 09:55:50;;;;;;;7.10;6.50;;;27.40;99.90;;;;;;5052520;28;21011;-83
2022/06/30 09:58:40;;;;;;;7.07;5.50;;;27.30;99.90;;;;;;5024714;28;20808;-82
2022/06/30 10:01:25;;;;;;;7.10;6.40;;;27.00;99.90;;;;;;5040701;28;20516;-84
2022/06/30 10:04:17;;;;;;;6.33;5.83;;;27.00;99.90;;;;;;5035402;28;20460;-82
2022/06/30 10:07:01;;;;;;;9.33;6.80;;;27.10;99.90;;;;;;5017261;28;20430;-81
2022/06/30 10:09:48;;;;;;;9.70;6.30;;;26.90;99.90;;;;;;5049738;28;20421;-81
2022/06/30 10:12:33;;;;;;;7.90;7.10;;;27.10;99.90;;;;;;5052157;28;20467;-82
2022/06/30 10:15:20;;;;;;;7.03;6.40;;;26.80;99.90;;;;;;5048682;28;20487;-81
2022/06/30 10:18:09;;;;;;;7.00;6.30;;;27.00;99.90;;;;;;5040646;28;20444;-84
2022/06/30 10:20:58;;;;;;;9.90;7.00;;;27.10;99.90;;;;;;5054032;28;20421;-83
2022/06/30 10:23:43;;;;;;;7.13;6.17;;;27.20;99.90;;;;;;5057424;28;20421;-85
2022/06/30 10:29:27;;;;;;;6.00;5.40;;;27.50;99.90;;;;;;5052183;28;20436;-84
2022/06/30 10:32:21;;;;;;;7.53;6.30;;;27.40;99.90;;;;;;5035482;28;20412;-85
2022/06/30 10:35:30;;;;;;;7.90;7.17;;;27.60;99.90;;;;;;5053666;28;20881;-84
2022/06/30 10:38:34;;;;;;;6.80;6.07;;;27.80;99.90;;;;;;5053473;28;20473;-85
2022/06/30 10:41:23;;;;;;;5.97;5.47;;;28.10;99.90;;;;;;5022136;28;20529;-85
2022/06/30 10:44:14;;;;;;;6.77;5.67;;;28.50;99.90;;;;;;5053130;28;20456;-85
2022/06/30 10:47:03;;;;;;;6.20;5.63;;;28.50;99.90;;;;;;5042462;28;20486;-84
2022/06/30 10:49:54;;;;;;;5.67;5.07;;;28.10;99.90;;;;;;5060703;28;20490;-85
2022/06/30 10:52:38;;;;;;;8.97;6.67;;;28.30;99.90;;;;;;4996315;28;20493;-86
2022/06/30 10:55:22;;;;;;;7.37;6.67;;;28.50;99.90;;;;;;4987930;28;20479;-85
2022/06/30 10:58:08;;;;;;;5.77;5.27;;;28.70;99.90;;;;;;5009159;28;21109;-86
2022/06/30 11:01:02;;;;;;;6.77;6.07;;;29.00;99.90;;;;;;5010235;28;20453;-85
2022/06/30 11:03:57;;;;;;;5.60;4.97;;;28.90;99.90;;;;;;5031573;28;20770;-86
2022/06/30 11:06:57;;;;;;;6.30;5.57;;;28.60;99.90;;;;;;5013653;28;20502;-86
2022/06/30 11:10:00;;;;;;;6.50;5.90;;;28.70;99.90;;;;;;5018256;28;20449;-88
2022/06/30 11:12:51;;;;;;;6.50;5.63;;;29.00;99.90;;;;;;5019243;28;20473;-88
2022/06/30 11:15:53;;;;;;;6.27;5.40;;;28.80;99.90;;;;;;5032550;28;20461;-84
2022/06/30 11:18:37;;;;;;;6.13;5.53;;;28.90;99.90;;;;;;5033028;28;20568;-86
2022/06/30 11:21:22;;;;;;;5.50;5.10;;;29.00;99.90;;;;;;5030859;28;20520;-86
2022/06/30 11:24:08;;;;;;;7.53;5.57;;;28.90;99.90;;;;;;5007267;28;20430;-86
2022/06/30 11:30:00;;;;;;;5.83;5.33;;;28.80;99.90;;;;;;5022272;28;20568;-86
2022/06/30 11:32:45;;;;;;;5.97;5.47;;;29.00;99.90;;;;;;5032549;28;20465;-87
2022/06/30 11:35:31;;;;;;;6.27;5.80;;;29.30;99.90;;;;;;5013389;28;20511;-87
2022/06/30 11:38:25;;;;;;;6.20;5.03;;;29.80;99.90;;;;;;5054012;28;20425;-85
2022/06/30 11:44:11;;;;;;;14.37;5.97;;;29.50;99.90;;;;;;5046519;28;20487;-85
2022/06/30 11:46:59;;;;;;;6.00;5.00;;;29.70;99.90;;;;;;5061017;28;20424;-85
2022/06/30 11:49:50;;;;;;;6.83;4.13;;;30.30;95.90;;;;;;5058749;28;20557;-86
2022/06/30 11:52:38;;;;;;;8.07;4.47;;;29.90;95.00;;;;;;5044107;28;20439;-87
2022/06/30 11:55:30;;;;;;;8.63;5.10;;;29.80;96.20;;;;;;5057929;28;20432;-86
2022/06/30 11:58:26;;;;;;;9.90;5.57;;;30.20;95.00;;;;;;5044320;28;20478;-87
2022/06/30 12:01:12;;;;;;;7.17;6.47;;;30.40;94.30;;;;;;5036130;28;20460;-86
2022/06/30 12:03:57;;;;;;;7.40;6.40;;;30.70;93.70;;;;;;5054344;28;20477;-84
2022/06/30 12:06:42;;;;;;;6.00;5.50;;;31.30;92.30;;;;;;5033276;28;20429;-82
2022/06/30 12:09:26;;;;;;;8.87;7.97;;;31.10;91.70;;;;;;5054415;28;20963;-82
2022/06/30 12:12:13;;;;;;;10.10;4.87;;;30.90;90.90;;;;;;5029326;28;20448;-83
2022/06/30 12:15:02;;;;;;;8.77;4.63;;;31.30;91.00;;;;;;5055491;28;21206;-83
2022/06/30 12:17:52;;;;;;;6.60;6.00;;;31.70;89.60;;;;;;5040964;28;20452;-86
2022/06/30 12:20:38;;;;;;;5.33;4.90;;;31.90;86.30;;;;;;5061234;28;20183;-80
2022/06/30 12:23:23;;;;;;;9.90;6.97;;;31.10;89.20;;;;;;5051642;28;20193;-80
2022/06/30 12:26:08;;;;;;;5.47;5.10;;;31.10;89.40;;;;;;5003888;28;20212;-80
2022/06/30 12:28:56;;;;;;;6.10;5.53;;;31.20;88.70;;;;;;4999960;28;20538;-80
2022/06/30 12:31:41;;;;;;;7.00;6.25;;;31.10;88.30;;;;;;4991018;28;20175;-81
2022/06/30 12:34:26;;;;;;;6.10;5.50;;;30.70;88.00;;;;;;5000271;28;20240;-81
2022/06/30 12:37:11;;;;;;;10.30;6.20;;;31.00;88.30;;;;;;4991557;28;20610;-81
2022/06/30 12:39:58;;;;;;;6.22;5.60;;;31.60;90.60;;;;;;5000878;28;20270;-80
2022/06/30 12:42:46;;;;;;;7.05;5.85;;;31.50;88.20;;;;;;4986032;28;20243;-80
2022/06/30 12:45:54;;;;;;;5.63;5.22;;;31.60;87.00;;;;;;4995944;28;20277;-82
2022/06/30 12:48:43;;;;;;;5.75;5.35;;;32.20;87.90;;;;;;5009096;28;20179;-82
2022/06/30 12:51:43;;;;;;;4.60;4.30;;;32.00;83.00;;;;;;4980974;28;20187;-82
2022/06/30 12:54:28;;;;;;;5.90;5.50;;;31.60;85.80;;;;;;4998976;28;20177;-82
2022/06/30 12:57:13;;;;;;;9.27;5.63;;;31.60;84.80;;;;;;5014470;28;20238;-82
2022/06/30 12:59:58;;;;;;;6.15;5.20;;;31.70;84.20;;;;;;5052583;28;20234;-83
2022/06/30 13:02:42;;;;;;;5.47;5.07;;;32.20;88.00;;;;;;5061273;28;20245;-83
2022/06/30 13:05:31;;;;;;;5.93;5.53;;;32.10;83.90;;;;;;5043079;28;20210;-81
2022/06/30 13:08:15;;;;;;;8.27;5.10;;;32.80;83.30;;;;;;5003435;28;20190;-81
2022/06/30 13:11:08;;;;;;;5.80;5.07;;;32.20;82.10;;;;;;5013500;28;20179;-81
2022/06/30 13:13:55;;;;;;;6.05;5.40;;;32.10;82.80;;;;;;5000367;28;20592;-85
2022/06/30 13:16:43;;;;;;;6.97;5.18;;;32.40;79.80;;;;;;4987338;28;20328;-85
2022/06/30 13:19:32;;;;;;;6.50;5.88;;;32.90;78.10;;;;;;5023636;28;20266;-84
2022/06/30 13:22:17;;;;;;;6.47;4.50;;;32.90;76.60;;;;;;4969131;28;20196;-85
2022/06/30 13:25:03;;;;;;;5.55;5.05;;;32.40;74.60;;;;;;5024222;28;20200;-82
2022/06/30 13:27:47;;;;;;;6.20;5.60;;;33.10;77.10;;;;;;5006015;28;20214;-84
2022/06/30 13:30:31;;;;;;;6.10;4.95;;;33.40;75.70;;;;;;4999083;28;20253;-83
2022/06/30 13:33:16;;;;;;;5.38;4.97;;;33.20;73.50;;;;;;5005609;28;20201;-84
2022/06/30 13:36:02;;;;;;;5.80;5.30;;;33.10;70.10;;;;;;5006736;28;20315;-84
2022/06/30 13:38:47;;;;;;;5.50;4.93;;;33.30;72.60;;;;;;5007207;28;20199;-83
2022/06/30 13:41:34;;;;;;;5.82;4.60;;;34.20;71.00;;;;;;5018079;28;20231;-83
2022/06/30 13:44:19;;;;;;;6.63;5.45;;;33.30;71.10;;;;;;4963222;28;20235;-82
2022/06/30 13:47:03;;;;;;;4.95;4.20;;;34.30;70.10;;;;;;5014901;28;20223;-85
2022/06/30 13:49:48;;;;;;;4.40;4.10;;;33.80;67.00;;;;;;4992478;28;20287;-85
2022/06/30 13:52:34;;;;;;;5.70;5.10;;;34.10;67.40;;;;;;5016024;28;20197;-85
2022/06/30 13:55:18;;;;;;;4.57;4.13;;;34.20;67.40;;;;;;5061242;28;20240;-85
2022/06/30 13:58:05;;;;;;;6.13;4.38;;;33.90;65.70;;;;;;5037653;28;20181;-84
2022/06/30 14:00:51;;;;;;;4.80;4.40;;;33.80;66.60;;;;;;5050893;28;20237;-86
2022/06/30 14:03:36;;;;;;;5.70;5.10;;;33.20;65.50;;;;;;5054913;28;20175;-84
2022/06/30 14:06:21;;;;;;;5.80;5.40;;;33.00;68.20;;;;;;5056818;28;20619;-86
2022/06/30 14:09:05;;;;;;;4.47;4.18;;;33.20;67.50;;;;;;5044239;28;20190;-84
2022/06/30 14:11:50;;;;;;;6.35;4.88;;;33.20;64.70;;;;;;5042267;28;20618;-83
2022/06/30 14:14:35;;;;;;;5.72;5.22;;;34.30;64.90;;;;;;5060589;28;20214;-80
2022/06/30 14:17:20;;;;;;;4.72;4.38;;;34.70;61.00;;;;;;5041786;28;20190;-81
2022/06/30 14:20:06;;;;;;;7.75;4.93;;;34.30;61.80;;;;;;5034446;28;20197;-80
2022/06/30 14:22:51;;;;;;;14.10;4.53;;;35.00;60.30;;;;;;5056524;28;20308;-80
2022/06/30 14:25:35;;;;;;;4.47;4.07;;;34.40;60.50;;;;;;5038781;28;20210;-85
2022/06/30 14:28:20;;;;;;;5.57;5.07;;;33.80;61.60;;;;;;5058755;28;20174;-85
2022/06/30 14:31:05;;;;;;;5.25;4.88;;;33.10;63.50;;;;;;5049232;28;20532;-87